Time;durP1;ratioP1;P1;durP2;ratioP2;P2;SDS_P1;SDS_P2;PMS_P1;PMS_P2;Temp;Humidity;BMP_temperature;BMP_pressure;BME280_temperature;BME280_humidity;BME280_pressure;Samples;Min_cycle;Max_cycle;Signal;HPM_P1;HPM_P2
2023/06/21 00:01:38;;;;;;;2.00;1.27;;;23.00;99.90;;;;;;5012258;28;20632;-76
2023/06/21 00:04:07;;;;;;;2.87;1.77;;;23.00;99.90;;;;;;4996618;28;20604;-76
2023/06/21 00:06:36;;;;;;;3.83;1.70;;;23.00;99.90;;;;;;4983972;28;20584;-76
2023/06/21 00:09:05;;;;;;;2.50;1.33;;;23.00;99.90;;;;;;5015286;28;20626;-76
2023/06/21 00:11:32;;;;;;;4.43;1.90;;;23.00;99.90;;;;;;4987130;28;20598;-75
2023/06/21 00:13:58;;;;;;;2.77;1.50;;;23.00;99.90;;;;;;4959118;28;20642;-76
2023/06/21 00:16:23;;;;;;;2.83;1.20;;;23.00;99.90;;;;;;4976001;28;20950;-77
2023/06/21 00:18:49;;;;;;;2.37;1.63;;;23.00;99.90;;;;;;5029948;28;20606;-77
2023/06/21 00:21:15;;;;;;;2.83;1.57;;;23.00;99.90;;;;;;5029702;28;20245;-77
2023/06/21 00:23:44;;;;;;;2.27;1.40;;;22.90;99.90;;;;;;4996160;28;20564;-77
2023/06/21 00:26:10;;;;;;;2.83;2.00;;;22.90;99.90;;;;;;5011551;28;20178;-77
2023/06/21 00:28:35;;;;;;;2.43;2.03;;;22.90;99.90;;;;;;4996493;28;21179;-77
2023/06/21 00:31:08;;;;;;;3.07;2.03;;;22.90;99.90;;;;;;4992089;28;21148;-76
2023/06/21 00:33:33;;;;;;;3.40;1.90;;;22.90;99.90;;;;;;4992489;28;20632;-76
2023/06/21 00:36:00;;;;;;;2.27;1.80;;;22.90;99.90;;;;;;4999073;28;20612;-77
2023/06/21 00:38:26;;;;;;;3.00;1.67;;;22.90;99.90;;;;;;5028516;28;20572;-76
2023/06/21 00:40:53;;;;;;;2.87;1.77;;;22.90;99.90;;;;;;5014929;28;21193;-76
2023/06/21 00:43:18;;;;;;;2.70;2.00;;;22.90;99.90;;;;;;5011258;28;20308;-76
2023/06/21 00:45:48;;;;;;;3.70;1.90;;;22.90;99.90;;;;;;4995685;28;20588;-76
2023/06/21 00:48:14;;;;;;;6.07;2.50;;;22.90;99.90;;;;;;5027964;28;20603;-76
2023/06/21 00:50:41;;;;;;;3.33;1.80;;;22.90;99.90;;;;;;4998274;28;21147;-76
2023/06/21 00:53:08;;;;;;;3.10;1.47;;;22.90;99.90;;;;;;5033160;28;20573;-75
2023/06/21 00:55:34;;;;;;;2.33;1.57;;;22.90;99.90;;;;;;5015939;28;20599;-76
2023/06/21 00:58:01;;;;;;;2.77;1.40;;;22.90;99.90;;;;;;5016071;28;20587;-76
2023/06/21 01:00:27;;;;;;;3.40;1.50;;;22.90;99.90;;;;;;5032938;28;20576;-76
2023/06/21 01:02:54;;;;;;;2.53;1.70;;;22.90;99.90;;;;;;5015415;28;20276;-76
2023/06/21 01:05:24;;;;;;;3.47;1.97;;;22.90;99.90;;;;;;5000814;28;20272;-76
2023/06/21 01:08:07;;;;;;;3.20;2.07;;;22.90;99.90;;;;;;4991912;28;20600;-76
2023/06/21 01:10:58;;;;;;;2.37;1.67;;;22.80;99.90;;;;;;4998460;28;21363;-76
2023/06/21 01:13:23;;;;;;;2.27;1.80;;;22.80;99.90;;;;;;4997061;28;20608;-76
2023/06/21 01:15:58;;;;;;;2.83;1.93;;;22.80;99.90;;;;;;4974031;28;20624;-76
2023/06/21 01:18:26;;;;;;;2.40;1.57;;;22.80;99.90;;;;;;5017815;28;20541;-75
2023/06/21 01:20:57;;;;;;;2.80;2.00;;;22.80;99.90;;;;;;4992057;28;20694;-75
2023/06/21 01:23:32;;;;;;;6.23;1.90;;;22.80;99.90;;;;;;4975761;28;20658;-76
2023/06/21 01:26:34;;;;;;;2.83;2.03;;;22.80;99.90;;;;;;4968056;28;20667;-76
2023/06/21 01:29:30;;;;;;;2.70;1.80;;;22.70;99.90;;;;;;5009410;28;20620;-75
2023/06/21 01:31:57;;;;;;;2.47;1.80;;;22.70;99.90;;;;;;4990566;28;20982;-75
2023/06/21 01:34:24;;;;;;;3.60;2.23;;;22.70;99.90;;;;;;5014988;28;20674;-75
2023/06/21 01:36:50;;;;;;;2.77;2.10;;;22.70;99.90;;;;;;5006448;28;20609;-75
2023/06/21 01:39:16;;;;;;;2.40;1.90;;;22.70;99.90;;;;;;4998626;28;20909;-75
2023/06/21 01:41:42;;;;;;;2.80;2.20;;;22.70;99.90;;;;;;5014330;28;20627;-76
2023/06/21 01:44:09;;;;;;;2.73;2.23;;;22.70;99.90;;;;;;4990761;28;20693;-75
2023/06/21 01:46:36;;;;;;;3.03;2.10;;;22.70;99.90;;;;;;5014403;28;20178;-76
2023/06/21 01:49:06;;;;;;;3.80;2.23;;;22.60;99.90;;;;;;4998181;28;20675;-75
2023/06/21 01:51:37;;;;;;;5.10;2.43;;;22.60;99.90;;;;;;5014585;28;20700;-75
2023/06/21 01:54:03;;;;;;;3.47;2.50;;;22.60;99.90;;;;;;5024023;28;20646;-75
2023/06/21 01:56:30;;;;;;;2.60;2.13;;;22.60;99.90;;;;;;4970959;28;20593;-76
2023/06/21 01:58:55;;;;;;;3.33;2.67;;;22.60;99.90;;;;;;4979025;28;20577;-75
2023/06/21 02:01:23;;;;;;;3.20;2.43;;;22.60;99.90;;;;;;4993449;28;20675;-77
2023/06/21 02:03:54;;;;;;;2.63;2.10;;;22.60;99.90;;;;;;4998696;28;20244;-76
2023/06/21 02:06:21;;;;;;;2.80;2.40;;;22.60;99.90;;;;;;4997957;28;20642;-76
2023/06/21 02:08:51;;;;;;;3.33;2.33;;;22.60;99.90;;;;;;4998718;28;20572;-76
2023/06/21 02:11:18;;;;;;;4.17;2.20;;;22.60;99.90;;;;;;4993458;28;20607;-76
2023/06/21 02:13:48;;;;;;;2.90;1.80;;;22.60;99.90;;;;;;4995079;28;20617;-76
2023/06/21 02:16:15;;;;;;;2.60;2.23;;;22.60;99.90;;;;;;4994736;28;21234;-76
2023/06/21 02:18:41;;;;;;;2.93;1.67;;;22.60;99.90;;;;;;4995294;28;20696;-76
2023/06/21 02:21:06;;;;;;;3.07;2.23;;;22.50;99.90;;;;;;5030174;28;20744;-76
2023/06/21 02:23:32;;;;;;;2.30;1.90;;;22.50;99.90;;;;;;5015080;28;21241;-76
2023/06/21 02:25:58;;;;;;;5.87;2.30;;;22.50;99.90;;;;;;5014773;28;20585;-76
2023/06/21 02:28:24;;;;;;;2.67;1.87;;;22.60;99.90;;;;;;4997951;28;20182;-77
2023/06/21 02:30:50;;;;;;;3.00;2.20;;;22.50;99.90;;;;;;5017482;28;20216;-76
2023/06/21 02:33:15;;;;;;;3.13;2.00;;;22.60;99.90;;;;;;5030309;28;20632;-76
2023/06/21 02:35:41;;;;;;;4.00;2.40;;;22.60;99.90;;;;;;4988714;28;20178;-76
2023/06/21 02:38:08;;;;;;;3.10;2.40;;;22.60;99.90;;;;;;5011096;28;20635;-76
2023/06/21 02:40:34;;;;;;;4.07;2.47;;;22.60;99.90;;;;;;4993563;28;20296;-76
2023/06/21 02:43:00;;;;;;;2.77;2.30;;;22.50;99.90;;;;;;4994110;28;20680;-76
2023/06/21 02:45:27;;;;;;;3.73;2.10;;;22.50;99.90;;;;;;4977759;28;20613;-76
2023/06/21 02:47:54;;;;;;;2.90;2.10;;;22.60;99.90;;;;;;4978177;28;20589;-76
2023/06/21 02:50:20;;;;;;;2.83;2.00;;;22.60;99.90;;;;;;4976981;28;20970;-76
2023/06/21 02:52:46;;;;;;;2.63;1.70;;;22.60;99.90;;;;;;4993312;28;20174;-76
2023/06/21 02:55:11;;;;;;;3.00;2.33;;;22.60;99.90;;;;;;5011208;28;20187;-76
2023/06/21 02:57:37;;;;;;;3.33;2.17;;;22.60;99.90;;;;;;4994391;28;20562;-75
2023/06/21 03:03:03;;;;;;;2.90;2.07;;;22.60;99.90;;;;;;4966089;28;20601;-76
2023/06/21 03:05:29;;;;;;;3.27;2.67;;;22.60;99.90;;;;;;4997002;28;20584;-76
2023/06/21 03:07:56;;;;;;;3.40;2.70;;;22.60;99.90;;;;;;5010812;28;20178;-76
2023/06/21 03:10:23;;;;;;;4.10;2.30;;;22.60;99.90;;;;;;5006317;28;20592;-76
2023/06/21 03:12:49;;;;;;;3.67;2.20;;;22.50;99.90;;;;;;4992047;28;20574;-76
2023/06/21 03:15:19;;;;;;;3.20;2.10;;;22.50;99.90;;;;;;4977580;28;20640;-76
2023/06/21 03:17:45;;;;;;;2.83;2.33;;;22.50;99.90;;;;;;4961638;28;20594;-76
2023/06/21 03:20:14;;;;;;;3.10;2.73;;;22.50;99.90;;;;;;4987227;28;20601;-76
2023/06/21 03:22:43;;;;;;;3.03;2.50;;;22.40;99.90;;;;;;5011998;28;20189;-76
2023/06/21 03:25:10;;;;;;;3.63;2.47;;;22.40;99.90;;;;;;5012872;28;20616;-76
2023/06/21 03:27:37;;;;;;;4.53;2.33;;;22.40;99.90;;;;;;4996663;28;20577;-76
2023/06/21 03:30:05;;;;;;;3.10;2.70;;;22.40;99.90;;;;;;4996013;28;20647;-76
2023/06/21 03:32:35;;;;;;;4.27;3.33;;;22.40;99.90;;;;;;4997225;28;21295;-75
2023/06/21 03:35:02;;;;;;;4.60;3.50;;;22.40;99.90;;;;;;4992560;28;20625;-76
2023/06/21 03:37:28;;;;;;;3.80;2.83;;;22.30;99.90;;;;;;4993712;28;20885;-76
2023/06/21 03:39:54;;;;;;;4.40;3.00;;;22.30;99.90;;;;;;4996137;28;20603;-76
2023/06/21 03:42:20;;;;;;;5.43;2.80;;;22.30;99.90;;;;;;5015617;28;20668;-76
2023/06/21 03:44:46;;;;;;;3.90;3.00;;;22.40;99.90;;;;;;5012924;28;20616;-76
2023/06/21 03:47:12;;;;;;;3.20;2.37;;;22.40;99.90;;;;;;4996105;28;20595;-76
2023/06/21 03:49:40;;;;;;;5.20;3.53;;;22.40;99.90;;;;;;4996308;28;20620;-76
2023/06/21 03:52:06;;;;;;;2.97;2.63;;;22.40;99.90;;;;;;5028081;28;20612;-76
2023/06/21 03:54:32;;;;;;;3.13;2.27;;;22.50;99.90;;;;;;5012590;28;20646;-76
2023/06/21 03:56:57;;;;;;;3.73;2.70;;;22.50;99.90;;;;;;5030246;28;20707;-76
2023/06/21 03:59:23;;;;;;;4.23;3.20;;;22.60;99.90;;;;;;5011951;28;20173;-76
2023/06/21 04:01:50;;;;;;;3.00;2.20;;;22.60;99.90;;;;;;5011377;28;20240;-76
2023/06/21 04:04:17;;;;;;;3.97;2.40;;;22.70;99.90;;;;;;5029458;28;20670;-76
2023/06/21 04:06:43;;;;;;;3.37;2.70;;;22.80;99.90;;;;;;5012583;28;21120;-76
2023/06/21 04:09:09;;;;;;;3.47;2.80;;;22.90;99.90;;;;;;4995663;28;20176;-76
2023/06/21 04:11:35;;;;;;;3.53;2.80;;;23.00;99.90;;;;;;5011503;28;20527;-75
2023/06/21 04:14:00;;;;;;;3.10;2.60;;;23.10;99.90;;;;;;5029466;28;20209;-76
2023/06/21 04:16:26;;;;;;;4.63;3.33;;;23.10;99.90;;;;;;5012407;28;20209;-76
2023/06/21 04:18:52;;;;;;;3.80;2.60;;;23.10;99.90;;;;;;5014258;28;21001;-75
2023/06/21 04:21:18;;;;;;;3.20;2.73;;;23.20;99.90;;;;;;5011806;28;20216;-76
2023/06/21 04:23:44;;;;;;;3.73;3.30;;;23.30;99.90;;;;;;5028283;28;20225;-76
2023/06/21 04:26:12;;;;;;;4.00;2.77;;;23.40;99.90;;;;;;4995212;28;20173;-76
2023/06/21 04:28:41;;;;;;;3.73;3.30;;;23.50;99.90;;;;;;5013985;28;20531;-76
2023/06/21 04:31:07;;;;;;;3.67;2.50;;;23.60;99.90;;;;;;5007376;28;20589;-76
2023/06/21 04:33:34;;;;;;;5.03;2.80;;;23.80;99.90;;;;;;4992298;28;21133;-76
2023/06/21 04:36:00;;;;;;;6.10;3.40;;;23.90;99.90;;;;;;5000290;28;20734;-76
2023/06/21 04:38:26;;;;;;;4.77;3.20;;;24.00;99.90;;;;;;4976387;28;20585;-76
2023/06/21 04:40:52;;;;;;;3.67;3.00;;;24.10;99.90;;;;;;4991380;28;20691;-75
2023/06/21 04:43:18;;;;;;;4.73;3.20;;;24.20;99.90;;;;;;4991713;28;20251;-76
2023/06/21 04:45:48;;;;;;;4.53;2.80;;;24.30;99.90;;;;;;4991625;28;20174;-76
2023/06/21 04:48:14;;;;;;;5.07;3.90;;;24.30;99.90;;;;;;4991679;28;20585;-76
2023/06/21 04:50:45;;;;;;;4.30;3.40;;;24.30;99.90;;;;;;5009696;28;20573;-76
2023/06/21 04:53:13;;;;;;;3.23;2.90;;;24.40;99.90;;;;;;5008814;28;20186;-76
2023/06/21 04:55:43;;;;;;;4.43;3.13;;;24.50;99.90;;;;;;5013320;28;20625;-76
2023/06/21 04:58:09;;;;;;;3.90;3.17;;;24.60;99.90;;;;;;5009554;28;20577;-76
2023/06/21 05:00:36;;;;;;;3.47;3.10;;;24.70;99.90;;;;;;4975578;28;20600;-76
2023/06/21 05:03:02;;;;;;;3.53;2.97;;;24.80;99.90;;;;;;4991457;28;21090;-76
2023/06/21 05:05:27;;;;;;;3.90;3.17;;;24.80;99.90;;;;;;4992406;28;20589;-76
2023/06/21 05:07:53;;;;;;;3.27;2.97;;;24.90;99.90;;;;;;4992091;28;20178;-76
2023/06/21 05:10:19;;;;;;;4.93;3.50;;;25.00;99.90;;;;;;4991093;28;20273;-76
2023/06/21 05:12:45;;;;;;;4.10;3.33;;;25.10;99.90;;;;;;4992158;28;20261;-76
2023/06/21 05:15:10;;;;;;;4.83;3.03;;;25.10;99.90;;;;;;4996457;28;21242;-76
2023/06/21 05:17:36;;;;;;;3.83;3.27;;;25.20;99.90;;;;;;5011979;28;20625;-76
2023/06/21 05:20:04;;;;;;;4.03;3.37;;;25.20;99.90;;;;;;5007350;28;20209;-76
2023/06/21 05:22:30;;;;;;;5.83;3.97;;;25.30;99.90;;;;;;4991704;28;20707;-76
2023/06/21 05:24:56;;;;;;;3.50;3.20;;;25.30;99.90;;;;;;4996981;28;20628;-76
2023/06/21 05:27:22;;;;;;;4.33;3.77;;;25.40;99.90;;;;;;4991725;28;20582;-76
2023/06/21 05:29:48;;;;;;;3.37;3.07;;;25.40;99.90;;;;;;4991882;28;20580;-76
2023/06/21 05:32:14;;;;;;;6.30;3.87;;;25.50;99.90;;;;;;4993099;28;20833;-77
2023/06/21 05:34:39;;;;;;;4.73;4.30;;;25.50;99.90;;;;;;5009149;28;20208;-76
2023/06/21 05:37:05;;;;;;;3.93;3.53;;;25.70;99.90;;;;;;5024908;28;20173;-76
2023/06/21 05:39:31;;;;;;;4.03;3.33;;;25.90;99.90;;;;;;5015445;28;20189;-76
2023/06/21 05:41:56;;;;;;;5.83;4.30;;;26.10;99.90;;;;;;5031508;28;20209;-76
2023/06/21 05:44:22;;;;;;;6.47;4.90;;;26.30;99.90;;;;;;5014799;28;20710;-76
2023/06/21 05:46:48;;;;;;;4.40;3.20;;;26.60;99.90;;;;;;5032513;28;20197;-76
2023/06/21 05:49:13;;;;;;;4.40;3.80;;;27.00;99.90;;;;;;4998371;28;20186;-76
2023/06/21 05:51:39;;;;;;;4.93;4.20;;;27.20;99.90;;;;;;5031888;28;20188;-76
2023/06/21 05:54:05;;;;;;;4.40;3.00;;;27.50;99.90;;;;;;5032147;28;20669;-76
2023/06/21 05:56:31;;;;;;;4.40;3.23;;;28.00;99.90;;;;;;5031360;28;20203;-76
2023/06/21 05:58:57;;;;;;;5.90;3.87;;;28.50;99.90;;;;;;5030601;28;20189;-76
2023/06/21 06:01:23;;;;;;;3.90;3.37;;;29.20;99.90;;;;;;5010192;28;20633;-76
2023/06/21 06:03:48;;;;;;;5.33;4.20;;;29.80;99.90;;;;;;4994615;28;20211;-77
2023/06/21 06:06:15;;;;;;;4.33;2.90;;;30.40;99.90;;;;;;5013285;28;20201;-76
2023/06/21 06:08:41;;;;;;;4.53;4.13;;;31.00;99.90;;;;;;5014482;28;20174;-76
2023/06/21 06:11:06;;;;;;;5.77;3.00;;;31.60;99.90;;;;;;4993402;28;21138;-76
2023/06/21 06:13:32;;;;;;;4.47;3.50;;;32.20;99.90;;;;;;5007222;28;20256;-77
2023/06/21 06:15:58;;;;;;;3.57;3.27;;;32.70;99.90;;;;;;5013772;28;20186;-77
2023/06/21 06:18:24;;;;;;;3.30;3.00;;;33.20;99.90;;;;;;5014483;28;21126;-77
2023/06/21 06:21:01;;;;;;;3.97;3.57;;;33.70;99.60;;;;;;5003833;28;20552;-78
2023/06/21 06:23:54;;;;;;;3.27;2.93;;;34.00;97.90;;;;;;4969083;28;20244;-78
2023/06/21 06:26:24;;;;;;;3.50;3.13;;;34.70;97.80;;;;;;4994155;28;21152;-78
2023/06/21 06:28:54;;;;;;;4.37;3.33;;;35.20;96.10;;;;;;4994353;28;20612;-77
2023/06/21 06:31:25;;;;;;;4.77;3.60;;;35.70;95.30;;;;;;5011034;28;20668;-75
2023/06/21 06:33:52;;;;;;;3.63;2.93;;;36.20;92.40;;;;;;5009287;28;20616;-76
2023/06/21 06:36:18;;;;;;;4.70;3.47;;;36.70;92.20;;;;;;5023103;28;20611;-76
2023/06/21 06:38:48;;;;;;;4.37;3.10;;;37.00;90.40;;;;;;5010260;28;20573;-76
2023/06/21 06:41:14;;;;;;;4.17;2.80;;;37.20;82.50;;;;;;4993465;28;20621;-76
2023/06/21 06:43:40;;;;;;;4.67;3.33;;;37.60;82.60;;;;;;4994465;28;20641;-76
2023/06/21 06:46:06;;;;;;;3.77;3.47;;;37.80;79.50;;;;;;4994179;28;20613;-77
2023/06/21 06:48:32;;;;;;;3.37;2.97;;;38.00;75.20;;;;;;4977087;28;20605;-77
2023/06/21 06:50:58;;;;;;;3.67;2.70;;;38.20;72.90;;;;;;4993598;28;20178;-77
2023/06/21 06:53:23;;;;;;;3.57;2.87;;;38.30;72.30;;;;;;5010750;28;20191;-77
2023/06/21 06:55:54;;;;;;;3.07;2.77;;;38.40;70.30;;;;;;4993545;28;20581;-77
2023/06/21 06:58:21;;;;;;;7.30;4.00;;;38.30;67.80;;;;;;5011020;28;20179;-76
2023/06/21 07:00:47;;;;;;;3.70;2.80;;;38.30;65.60;;;;;;4976327;28;20975;-76
2023/06/21 07:03:13;;;;;;;4.33;3.27;;;38.40;65.70;;;;;;5010853;28;20577;-76
2023/06/21 07:05:46;;;;;;;4.63;2.60;;;38.40;63.40;;;;;;4992897;28;20618;-76
2023/06/21 07:08:13;;;;;;;5.13;2.10;;;38.40;61.60;;;;;;4977634;28;20581;-76
2023/06/21 07:10:40;;;;;;;2.70;2.40;;;38.70;62.90;;;;;;4976566;28;20603;-76
2023/06/21 07:13:06;;;;;;;4.30;2.20;;;38.90;61.80;;;;;;5021710;28;20650;-76
2023/06/21 07:15:33;;;;;;;2.43;2.20;;;39.20;61.00;;;;;;4996816;28;21182;-77
2023/06/21 07:17:58;;;;;;;3.13;2.10;;;39.40;59.00;;;;;;4998821;28;20638;-77
2023/06/21 07:20:24;;;;;;;3.10;2.80;;;39.60;58.60;;;;;;4992863;28;20592;-77
2023/06/21 07:22:50;;;;;;;3.30;2.40;;;39.80;57.70;;;;;;4975907;28;20182;-77
2023/06/21 07:25:15;;;;;;;4.57;2.00;;;39.90;56.40;;;;;;4993182;28;20233;-77
2023/06/21 07:27:42;;;;;;;2.77;2.27;;;40.10;56.30;;;;;;4976627;28;20552;-74
2023/06/21 07:30:09;;;;;;;3.37;2.50;;;39.90;53.90;;;;;;4993430;28;20261;-74
2023/06/21 07:32:35;;;;;;;3.00;2.23;;;39.50;53.70;;;;;;5010665;28;20608;-74
2023/06/21 07:35:01;;;;;;;4.37;2.47;;;39.30;53.70;;;;;;4993886;28;20613;-73
2023/06/21 07:37:28;;;;;;;2.50;2.23;;;39.30;54.10;;;;;;5010807;28;20635;-74
2023/06/21 07:39:57;;;;;;;2.30;2.03;;;39.40;54.70;;;;;;4993113;28;20577;-74
2023/06/21 07:42:23;;;;;;;2.50;2.30;;;39.70;54.60;;;;;;4993245;28;20723;-74
2023/06/21 07:44:54;;;;;;;2.70;2.03;;;40.00;55.00;;;;;;5011010;28;20605;-73
2023/06/21 07:47:20;;;;;;;2.73;2.27;;;40.40;54.30;;;;;;4993954;28;20589;-73
2023/06/21 07:49:46;;;;;;;3.00;2.17;;;40.80;54.10;;;;;;4977399;28;20577;-74
2023/06/21 07:52:12;;;;;;;3.13;2.20;;;41.20;53.50;;;;;;5009729;28;20701;-74
2023/06/21 07:54:38;;;;;;;3.37;3.00;;;41.60;53.00;;;;;;5027428;28;20685;-76
2023/06/21 07:57:04;;;;;;;2.40;2.03;;;42.00;51.60;;;;;;5015605;28;20178;-75
2023/06/21 07:59:32;;;;;;;3.37;2.40;;;42.20;50.90;;;;;;5029310;28;21415;-75
2023/06/21 08:01:57;;;;;;;3.30;2.70;;;42.00;49.40;;;;;;5011898;28;21001;-76
2023/06/21 08:04:23;;;;;;;2.73;2.27;;;41.70;48.10;;;;;;4982038;28;20701;-76
2023/06/21 08:06:49;;;;;;;4.73;2.73;;;41.60;48.00;;;;;;4957000;28;20547;-74
2023/06/21 08:09:15;;;;;;;5.13;2.70;;;41.30;47.60;;;;;;4980681;28;20184;-78
2023/06/21 08:11:41;;;;;;;4.23;2.50;;;41.20;47.80;;;;;;4995206;28;20231;-78
2023/06/21 08:14:07;;;;;;;3.10;1.90;;;41.10;47.70;;;;;;5012090;28;20279;-76
2023/06/21 08:16:33;;;;;;;3.70;2.43;;;41.00;47.70;;;;;;5009618;28;20682;-76
2023/06/21 08:18:59;;;;;;;4.53;2.20;;;40.70;47.20;;;;;;4992545;28;20174;-76
2023/06/21 08:21:25;;;;;;;2.87;2.57;;;40.20;46.70;;;;;;4991475;28;20244;-76
2023/06/21 08:23:51;;;;;;;2.60;2.10;;;39.50;46.50;;;;;;5009546;28;20636;-76
2023/06/21 08:26:17;;;;;;;5.70;2.00;;;38.60;46.40;;;;;;5009760;28;20282;-76
2023/06/21 08:28:45;;;;;;;2.97;2.30;;;37.90;46.90;;;;;;4975382;28;20664;-76
2023/06/21 08:31:11;;;;;;;2.40;2.17;;;37.50;48.60;;;;;;5009656;28;20205;-76
2023/06/21 08:33:37;;;;;;;2.43;2.10;;;37.60;50.10;;;;;;4994005;28;20632;-77
2023/06/21 08:36:06;;;;;;;3.37;2.60;;;37.90;50.40;;;;;;5002032;28;20703;-77
2023/06/21 08:38:32;;;;;;;3.27;2.50;;;37.90;49.60;;;;;;4991704;28;20193;-76
2023/06/21 08:41:02;;;;;;;3.23;2.87;;;37.60;49.10;;;;;;4991810;28;21255;-77
2023/06/21 08:43:28;;;;;;;3.83;2.80;;;37.30;49.20;;;;;;4991910;28;20613;-76
2023/06/21 08:45:55;;;;;;;7.00;2.63;;;37.30;50.30;;;;;;5009509;28;20600;-77
2023/06/21 08:48:22;;;;;;;4.70;2.93;;;37.60;50.80;;;;;;5009732;28;20585;-76
2023/06/21 08:50:49;;;;;;;3.47;3.17;;;38.10;51.10;;;;;;4975111;28;20585;-76
2023/06/21 08:53:25;;;;;;;2.97;2.43;;;38.40;50.70;;;;;;5009133;28;20608;-77
2023/06/21 08:55:51;;;;;;;5.20;2.87;;;38.80;50.20;;;;;;4975757;28;20581;-76
2023/06/21 08:58:22;;;;;;;3.20;2.90;;;39.30;50.00;;;;;;4992348;28;20581;-76
2023/06/21 09:00:53;;;;;;;3.53;2.67;;;39.60;48.90;;;;;;4981665;28;20633;-77
2023/06/21 09:03:29;;;;;;;3.33;2.77;;;39.80;48.40;;;;;;4975663;28;20642;-77
2023/06/21 09:06:10;;;;;;;3.63;3.10;;;40.10;48.40;;;;;;4992088;28;20980;-77
2023/06/21 09:08:40;;;;;;;3.33;2.47;;;40.30;47.50;;;;;;5011145;28;20983;-77
2023/06/21 09:11:07;;;;;;;3.30;3.00;;;40.30;47.00;;;;;;5011047;28;21133;-77
2023/06/21 09:13:34;;;;;;;4.93;3.50;;;40.10;46.60;;;;;;4995525;28;20629;-77
2023/06/21 09:16:03;;;;;;;3.73;3.00;;;39.70;46.00;;;;;;4995856;28;20600;-77
2023/06/21 09:18:35;;;;;;;5.37;3.00;;;39.40;46.30;;;;;;5012948;28;21096;-77
2023/06/21 09:21:02;;;;;;;5.20;3.17;;;39.20;46.80;;;;;;4995191;28;20640;-78
2023/06/21 09:23:28;;;;;;;5.00;2.50;;;39.10;47.60;;;;;;4994887;28;20620;-77
2023/06/21 09:25:57;;;;;;;3.20;2.77;;;39.20;48.30;;;;;;5013312;28;20885;-77
2023/06/21 09:28:23;;;;;;;3.07;2.40;;;39.50;48.70;;;;;;4994993;28;20174;-77
2023/06/21 09:30:49;;;;;;;3.83;2.70;;;39.80;48.40;;;;;;4994975;28;20615;-77
2023/06/21 09:33:15;;;;;;;3.30;2.90;;;40.10;47.60;;;;;;5014266;28;20648;-78
2023/06/21 09:35:43;;;;;;;3.77;3.40;;;40.10;46.90;;;;;;5024154;28;20545;-77
2023/06/21 09:38:32;;;;;;;3.00;2.30;;;40.10;46.20;;;;;;5015251;28;20580;-77
2023/06/21 09:41:00;;;;;;;6.13;3.27;;;40.00;46.20;;;;;;5031388;28;20630;-77
2023/06/21 09:43:26;;;;;;;4.00;3.17;;;40.20;46.40;;;;;;5030307;28;21006;-77
2023/06/21 09:46:08;;;;;;;4.93;2.57;;;40.20;46.40;;;;;;4991451;28;20582;-77
2023/06/21 09:48:35;;;;;;;3.63;2.90;;;40.10;45.70;;;;;;4979026;28;20178;-77
2023/06/21 09:51:02;;;;;;;3.40;2.90;;;40.00;45.60;;;;;;4977420;28;20616;-77
2023/06/21 09:53:28;;;;;;;4.07;3.30;;;39.60;45.30;;;;;;5011345;28;20620;-77
2023/06/21 09:55:59;;;;;;;4.37;3.30;;;39.20;45.50;;;;;;5012120;28;21140;-77
2023/06/21 09:58:25;;;;;;;5.70;3.10;;;38.90;46.30;;;;;;4978539;28;20178;-77
2023/06/21 10:00:51;;;;;;;4.40;3.60;;;38.90;46.90;;;;;;4994093;28;20625;-77
2023/06/21 10:03:24;;;;;;;4.33;3.60;;;38.90;47.60;;;;;;5012009;28;20178;-77
2023/06/21 10:05:58;;;;;;;4.53;3.70;;;39.20;47.30;;;;;;5012110;28;20642;-77
2023/06/21 10:08:29;;;;;;;3.40;3.10;;;39.40;46.80;;;;;;4978193;28;20585;-78
2023/06/21 10:10:55;;;;;;;4.87;3.77;;;39.70;46.70;;;;;;4977950;28;20585;-77
2023/06/21 10:13:28;;;;;;;3.40;3.10;;;40.00;46.70;;;;;;5011490;28;20624;-77
2023/06/21 10:15:55;;;;;;;4.20;3.10;;;40.20;46.60;;;;;;4994735;28;20696;-77
2023/06/21 10:18:23;;;;;;;3.33;2.73;;;40.30;45.70;;;;;;4994353;28;21136;-77
2023/06/21 10:20:56;;;;;;;2.63;2.40;;;40.20;45.60;;;;;;4997620;28;20580;-77
2023/06/21 10:23:26;;;;;;;2.90;2.70;;;40.20;45.70;;;;;;4993425;28;20593;-77
2023/06/21 10:25:55;;;;;;;3.70;3.40;;;40.20;45.20;;;;;;4978264;28;20681;-78
2023/06/21 10:28:22;;;;;;;4.20;2.83;;;40.10;45.00;;;;;;5007073;28;20591;-78
2023/06/21 10:30:53;;;;;;;3.13;2.90;;;40.30;45.40;;;;;;5013682;28;20587;-77
2023/06/21 10:33:20;;;;;;;3.80;3.50;;;40.30;45.20;;;;;;5031466;28;21183;-77
2023/06/21 10:35:48;;;;;;;5.10;3.50;;;40.20;44.80;;;;;;5004983;28;20634;-77
2023/06/21 10:38:43;;;;;;;6.47;3.97;;;39.90;44.40;;;;;;4997577;28;20634;-76
2023/06/21 10:41:09;;;;;;;3.87;2.80;;;39.50;44.60;;;;;;5012621;28;20620;-76
2023/06/21 10:43:35;;;;;;;3.80;3.33;;;38.90;44.10;;;;;;5013458;28;20672;-76
2023/06/21 10:46:07;;;;;;;6.80;4.10;;;38.30;44.20;;;;;;5013419;28;20182;-76
2023/06/21 10:48:34;;;;;;;5.00;3.50;;;37.70;44.60;;;;;;4996967;28;20625;-76
2023/06/21 10:51:02;;;;;;;4.70;4.17;;;37.00;44.80;;;;;;5012387;28;20581;-76
2023/06/21 10:53:31;;;;;;;6.30;3.30;;;36.40;45.40;;;;;;5031120;28;20608;-76
2023/06/21 10:55:59;;;;;;;3.57;3.23;;;36.10;46.40;;;;;;5013718;28;20595;-76
2023/06/21 10:58:25;;;;;;;4.07;3.67;;;35.90;47.20;;;;;;5035739;28;20986;-76
2023/06/21 11:00:51;;;;;;;4.23;3.47;;;36.00;48.00;;;;;;5027699;28;20624;-76
2023/06/21 11:03:23;;;;;;;3.77;3.47;;;36.10;48.50;;;;;;5008486;28;20592;-75
2023/06/21 11:05:53;;;;;;;4.70;3.40;;;36.10;48.30;;;;;;5011234;28;20732;-76
2023/06/21 11:08:30;;;;;;;4.50;4.10;;;35.90;47.80;;;;;;4993324;28;20576;-75
2023/06/21 11:10:56;;;;;;;4.40;4.00;;;35.60;47.70;;;;;;5010776;28;20886;-75
2023/06/21 11:13:34;;;;;;;4.83;3.93;;;35.10;47.70;;;;;;4992757;28;20584;-77
2023/06/21 11:16:18;;;;;;;8.43;4.27;;;34.70;49.20;;;;;;4992790;28;20584;-76
2023/06/21 11:18:56;;;;;;;5.47;5.07;;;34.20;49.40;;;;;;4991980;28;20643;-76
2023/06/21 11:21:47;;;;;;;4.93;4.43;;;33.70;51.20;;;;;;4992129;28;20730;-76
2023/06/21 11:24:18;;;;;;;5.00;4.50;;;33.20;51.90;;;;;;5010593;28;20647;-75
2023/06/21 11:27:06;;;;;;;6.20;4.83;;;32.80;51.30;;;;;;4993143;28;20676;-75
2023/06/21 11:29:35;;;;;;;5.20;4.60;;;32.40;52.40;;;;;;5010303;28;20620;-74
2023/06/21 11:32:09;;;;;;;4.43;3.90;;;32.00;52.50;;;;;;4992061;28;20617;-74
2023/06/21 11:34:35;;;;;;;5.30;4.33;;;31.70;53.10;;;;;;4992889;28;20953;-74
2023/06/21 11:37:35;;;;;;;5.23;4.73;;;31.50;53.30;;;;;;5016866;28;20602;-74
2023/06/21 11:40:03;;;;;;;9.60;5.10;;;31.30;54.20;;;;;;4995925;28;20219;-74
2023/06/21 11:42:34;;;;;;;6.00;5.40;;;31.10;54.20;;;;;;5011363;28;20643;-75
2023/06/21 11:45:32;;;;;;;6.30;4.60;;;30.90;54.70;;;;;;4996396;28;20616;-74
2023/06/21 11:48:08;;;;;;;5.30;4.40;;;30.70;55.30;;;;;;5011908;28;20940;-74
2023/06/21 11:50:35;;;;;;;6.30;4.90;;;30.60;54.90;;;;;;5029626;28;20988;-74
2023/06/21 11:53:25;;;;;;;5.70;5.20;;;30.50;55.00;;;;;;5010896;28;20581;-74
2023/06/21 11:55:54;;;;;;;5.63;4.57;;;30.50;56.10;;;;;;4994672;28;20604;-74
2023/06/21 11:58:21;;;;;;;9.00;5.20;;;30.50;56.10;;;;;;5005709;28;20597;-74
2023/06/21 12:00:47;;;;;;;4.87;4.10;;;30.50;56.40;;;;;;5009445;28;20581;-75
2023/06/21 12:03:14;;;;;;;4.80;4.40;;;30.50;56.40;;;;;;5008374;28;20582;-74
2023/06/21 12:05:47;;;;;;;5.07;4.63;;;30.70;57.40;;;;;;4977172;28;20577;-75
2023/06/21 12:08:13;;;;;;;4.30;3.90;;;31.00;58.50;;;;;;5012041;28;20592;-75
2023/06/21 12:10:39;;;;;;;5.73;3.20;;;31.40;58.70;;;;;;5000375;28;20585;-75
2023/06/21 12:13:06;;;;;;;3.77;3.23;;;31.80;59.00;;;;;;5029563;28;21232;-75
2023/06/21 12:15:31;;;;;;;4.50;4.03;;;32.20;58.40;;;;;;5032719;28;20993;-75
2023/06/21 12:17:58;;;;;;;4.20;3.17;;;32.40;57.20;;;;;;5012188;28;20619;-74
2023/06/21 12:20:24;;;;;;;3.63;3.33;;;32.60;56.30;;;;;;5028893;28;20644;-73
2023/06/21 12:22:50;;;;;;;6.47;3.40;;;32.70;55.70;;;;;;5028008;28;20627;-73
2023/06/21 12:25:16;;;;;;;5.23;2.80;;;32.80;55.30;;;;;;5027927;28;20676;-72
2023/06/21 12:27:57;;;;;;;5.07;3.10;;;32.80;55.40;;;;;;5029533;28;20177;-73
2023/06/21 12:30:27;;;;;;;3.50;2.77;;;32.90;55.50;;;;;;5009772;28;21141;-73
2023/06/21 12:32:55;;;;;;;2.70;2.23;;;33.20;55.60;;;;;;5009556;28;20744;-73
2023/06/21 12:35:21;;;;;;;2.73;2.43;;;33.30;54.90;;;;;;4982381;28;20628;-73
2023/06/21 12:37:47;;;;;;;3.60;2.40;;;33.30;54.40;;;;;;5008529;28;20619;-73
2023/06/21 12:40:17;;;;;;;2.87;2.57;;;33.40;54.20;;;;;;5009536;28;21412;-73
2023/06/21 12:42:46;;;;;;;3.00;2.60;;;33.40;54.20;;;;;;5010015;28;20626;-73
2023/06/21 12:45:20;;;;;;;14.83;4.87;;;33.50;54.10;;;;;;5013829;28;20615;-73
2023/06/21 12:47:48;;;;;;;8.90;2.90;;;33.50;53.80;;;;;;4997270;28;20626;-73
2023/06/21 12:50:20;;;;;;;4.00;3.10;;;33.40;53.40;;;;;;4986051;28;20631;-73
2023/06/21 12:52:57;;;;;;;3.80;3.10;;;33.30;53.30;;;;;;4978285;28;20585;-73
2023/06/21 12:55:23;;;;;;;7.20;3.70;;;33.20;53.30;;;;;;5069653;22;20683;-75
2023/06/21 12:57:49;;;;;;;7.00;3.10;;;33.10;53.40;;;;;;5040931;28;20594;-75